sensor_id;sensor_type;location;lat;lon;timestamp;noise_LAeq;noise_LA_min;noise_LA_max;noise_LA01;noise_LA95
70077;Laerm;57448;51.490;5.436;2023-03-20T00:01:23;35.24;32.21;40.15;;
70077;Laerm;57448;51.490;5.436;2023-03-20T00:03:25;34.99;31.21;41.49;;
70077;Laerm;57448;51.490;5.436;2023-03-20T00:05:27;35.09;31.73;43.58;;
70077;Laerm;57448;51.490;5.436;2023-03-20T00:07:29;34.63;31.09;42.04;;
70077;Laerm;57448;51.490;5.436;2023-03-20T00:09:31;34.61;30.86;39.03;;
70077;Laerm;57448;51.490;5.436;2023-03-20T00:11:33;35.26;31.51;41.71;;
70077;Laerm;57448;51.490;5.436;2023-03-20T00:13:35;33.99;30.89;38.85;;
70077;Laerm;57448;51.490;5.436;2023-03-20T00:15:37;33.57;30.83;39.34;;
70077;Laerm;57448;51.490;5.436;2023-03-20T00:17:39;33.04;30.40;37.03;;
70077;Laerm;57448;51.490;5.436;2023-03-20T00:19:40;33.08;30.63;37.51;;
70077;Laerm;57448;51.490;5.436;2023-03-20T00:21:42;34.67;31.64;40.63;;
70077;Laerm;57448;51.490;5.436;2023-03-20T00:23:44;33.93;31.15;41.63;;
70077;Laerm;57448;51.490;5.436;2023-03-20T00:25:48;34.55;31.44;42.37;;
70077;Laerm;57448;51.490;5.436;2023-03-20T00:27:49;33.70;31.38;39.52;;
70077;Laerm;57448;51.490;5.436;2023-03-20T00:29:50;33.51;30.80;40.34;;
70077;Laerm;57448;51.490;5.436;2023-03-20T00:31:52;34.80;31.87;40.58;;
70077;Laerm;57448;51.490;5.436;2023-03-20T00:33:57;33.48;31.10;46.79;;
70077;Laerm;57448;51.490;5.436;2023-03-20T00:35:59;33.63;30.58;36.85;;
70077;Laerm;57448;51.490;5.436;2023-03-20T00:38:01;33.70;31.04;38.41;;
70077;Laerm;57448;51.490;5.436;2023-03-20T00:40:03;34.04;30.93;37.63;;
70077;Laerm;57448;51.490;5.436;2023-03-20T00:42:06;33.06;30.85;40.83;;
70077;Laerm;57448;51.490;5.436;2023-03-20T00:44:18;33.69;30.72;38.77;;
70077;Laerm;57448;51.490;5.436;2023-03-20T00:46:20;34.26;30.90;38.28;;
70077;Laerm;57448;51.490;5.436;2023-03-20T00:48:21;33.14;31.14;39.86;;
70077;Laerm;57448;51.490;5.436;2023-03-20T00:50:23;33.13;30.26;40.29;;
70077;Laerm;57448;51.490;5.436;2023-03-20T00:52:26;34.84;30.97;40.37;;
70077;Laerm;57448;51.490;5.436;2023-03-20T00:54:27;33.88;30.29;37.60;;
70077;Laerm;57448;51.490;5.436;2023-03-20T00:56:32;35.58;31.15;40.95;;
70077;Laerm;57448;51.490;5.436;2023-03-20T00:58:36;34.45;30.86;41.68;;
70077;Laerm;57448;51.490;5.436;2023-03-20T01:00:38;33.12;30.42;38.91;;
70077;Laerm;57448;51.490;5.436;2023-03-20T01:02:40;34.33;30.62;39.49;;
70077;Laerm;57448;51.490;5.436;2023-03-20T01:04:41;35.53;31.24;41.11;;
70077;Laerm;57448;51.490;5.436;2023-03-20T01:06:42;35.35;30.63;40.80;;
70077;Laerm;57448;51.490;5.436;2023-03-20T01:08:44;35.65;30.81;48.61;;
70077;Laerm;57448;51.490;5.436;2023-03-20T01:10:48;36.04;31.97;45.53;;
70077;Laerm;57448;51.490;5.436;2023-03-20T01:12:50;37.09;32.88;43.05;;
70077;Laerm;57448;51.490;5.436;2023-03-20T01:14:54;36.35;33.27;42.11;;
70077;Laerm;57448;51.490;5.436;2023-03-20T01:16:55;36.64;33.10;45.97;;
70077;Laerm;57448;51.490;5.436;2023-03-20T01:18:57;35.65;33.05;39.53;;
70077;Laerm;57448;51.490;5.436;2023-03-20T01:20:58;35.68;32.27;45.81;;
70077;Laerm;57448;51.490;5.436;2023-03-20T01:22:59;33.66;29.93;40.40;;
70077;Laerm;57448;51.490;5.436;2023-03-20T01:25:01;33.89;30.35;39.32;;
70077;Laerm;57448;51.490;5.436;2023-03-20T01:27:04;34.52;30.73;39.41;;
70077;Laerm;57448;51.490;5.436;2023-03-20T01:29:09;34.24;30.17;38.09;;
70077;Laerm;57448;51.490;5.436;2023-03-20T01:31:17;35.43;31.71;42.47;;
70077;Laerm;57448;51.490;5.436;2023-03-20T01:33:19;34.63;31.53;37.69;;
70077;Laerm;57448;51.490;5.436;2023-03-20T01:35:21;35.20;32.27;39.92;;
70077;Laerm;57448;51.490;5.436;2023-03-20T01:37:24;34.73;31.08;38.60;;
70077;Laerm;57448;51.490;5.436;2023-03-20T01:39:27;34.67;30.66;39.32;;
70077;Laerm;57448;51.490;5.436;2023-03-20T01:41:31;34.65;31.17;39.32;;
70077;Laerm;57448;51.490;5.436;2023-03-20T01:43:33;34.70;31.22;40.58;;
70077;Laerm;57448;51.490;5.436;2023-03-20T01:45:35;33.72;30.66;44.02;;
70077;Laerm;57448;51.490;5.436;2023-03-20T01:47:37;35.06;31.31;41.30;;
70077;Laerm;57448;51.490;5.436;2023-03-20T01:51:59;34.07;30.97;39.76;;
70077;Laerm;57448;51.490;5.436;2023-03-20T01:54:01;34.31;30.90;44.11;;
70077;Laerm;57448;51.490;5.436;2023-03-20T01:56:05;33.58;30.18;37.83;;
70077;Laerm;57448;51.490;5.436;2023-03-20T01:58:08;33.76;31.40;38.48;;
70077;Laerm;57448;51.490;5.436;2023-03-20T02:00:12;34.20;30.91;43.61;;
70077;Laerm;57448;51.490;5.436;2023-03-20T02:02:16;35.09;31.64;40.06;;
70077;Laerm;57448;51.490;5.436;2023-03-20T02:04:20;33.91;31.13;38.32;;
70077;Laerm;57448;51.490;5.436;2023-03-20T02:06:25;34.45;31.87;39.92;;
70077;Laerm;57448;51.490;5.436;2023-03-20T02:08:28;34.22;31.45;44.36;;
70077;Laerm;57448;51.490;5.436;2023-03-20T02:10:29;34.23;31.30;38.56;;
70077;Laerm;57448;51.490;5.436;2023-03-20T02:12:31;34.41;31.02;39.77;;
70077;Laerm;57448;51.490;5.436;2023-03-20T02:14:33;34.43;31.46;38.07;;
70077;Laerm;57448;51.490;5.436;2023-03-20T02:16:35;34.74;31.28;39.25;;
70077;Laerm;57448;51.490;5.436;2023-03-20T02:18:37;35.23;31.55;39.98;;
70077;Laerm;57448;51.490;5.436;2023-03-20T02:20:43;36.03;32.16;43.39;;
70077;Laerm;57448;51.490;5.436;2023-03-20T02:23:02;35.51;32.74;44.66;;
70077;Laerm;57448;51.490;5.436;2023-03-20T02:27:31;35.15;31.62;42.42;;
70077;Laerm;57448;51.490;5.436;2023-03-20T02:34:22;35.91;32.53;42.28;;
70077;Laerm;57448;51.490;5.436;2023-03-20T02:36:38;35.65;32.31;43.03;;
70077;Laerm;57448;51.490;5.436;2023-03-20T02:38:49;37.09;32.90;43.42;;
70077;Laerm;57448;51.490;5.436;2023-03-20T02:40:56;35.99;32.63;41.99;;
70077;Laerm;57448;51.490;5.436;2023-03-20T02:43:02;36.63;33.41;42.29;;
70077;Laerm;57448;51.490;5.436;2023-03-20T02:45:08;36.70;33.54;44.58;;
70077;Laerm;57448;51.490;5.436;2023-03-20T02:47:12;37.03;33.31;40.39;;
70077;Laerm;57448;51.490;5.436;2023-03-20T02:49:17;36.90;33.82;40.91;;
70077;Laerm;57448;51.490;5.436;2023-03-20T02:51:25;37.03;33.48;41.73;;
70077;Laerm;57448;51.490;5.436;2023-03-20T02:53:34;36.85;33.58;42.76;;
70077;Laerm;57448;51.490;5.436;2023-03-20T02:55:40;35.45;31.87;40.63;;
70077;Laerm;57448;51.490;5.436;2023-03-20T02:57:49;37.44;33.55;44.40;;
70077;Laerm;57448;51.490;5.436;2023-03-20T02:59:53;36.79;33.69;41.11;;
70077;Laerm;57448;51.490;5.436;2023-03-20T03:01:58;36.95;33.63;41.12;;
70077;Laerm;57448;51.490;5.436;2023-03-20T03:04:03;36.88;34.09;40.44;;
70077;Laerm;57448;51.490;5.436;2023-03-20T03:06:08;36.25;33.17;40.29;;
70077;Laerm;57448;51.490;5.436;2023-03-20T03:08:11;37.20;34.17;43.64;;
70077;Laerm;57448;51.490;5.436;2023-03-20T03:10:14;37.37;34.04;47.31;;
70077;Laerm;57448;51.490;5.436;2023-03-20T03:12:18;36.37;32.62;41.44;;
70077;Laerm;57448;51.490;5.436;2023-03-20T03:14:25;38.33;35.19;41.29;;
70077;Laerm;57448;51.490;5.436;2023-03-20T03:16:29;38.46;34.08;42.08;;
70077;Laerm;57448;51.490;5.436;2023-03-20T03:18:32;37.44;34.74;41.44;;
70077;Laerm;57448;51.490;5.436;2023-03-20T03:20:36;38.34;35.02;42.28;;
70077;Laerm;57448;51.490;5.436;2023-03-20T03:22:38;37.79;34.56;41.83;;
70077;Laerm;57448;51.490;5.436;2023-03-20T03:24:42;39.09;35.23;43.27;;
70077;Laerm;57448;51.490;5.436;2023-03-20T03:26:43;39.14;35.66;45.72;;
70077;Laerm;57448;51.490;5.436;2023-03-20T03:28:46;38.62;35.27;42.81;;
70077;Laerm;57448;51.490;5.436;2023-03-20T03:30:48;38.34;34.87;43.14;;
70077;Laerm;57448;51.490;5.436;2023-03-20T03:32:56;39.04;35.42;45.38;;
70077;Laerm;57448;51.490;5.436;2023-03-20T03:35:04;39.42;35.05;42.98;;
70077;Laerm;57448;51.490;5.436;2023-03-20T03:37:06;39.55;36.48;42.99;;
70077;Laerm;57448;51.490;5.436;2023-03-20T03:39:13;40.04;36.03;43.64;;
70077;Laerm;57448;51.490;5.436;2023-03-20T03:41:18;39.84;36.45;43.80;;
70077;Laerm;57448;51.490;5.436;2023-03-20T03:43:23;40.03;36.89;44.44;;
70077;Laerm;57448;51.490;5.436;2023-03-20T03:45:30;39.57;36.28;43.47;;
70077;Laerm;57448;51.490;5.436;2023-03-20T03:47:33;40.90;37.64;45.42;;
70077;Laerm;57448;51.490;5.436;2023-03-20T03:49:38;40.87;37.47;46.05;;
70077;Laerm;57448;51.490;5.436;2023-03-20T03:51:42;40.44;37.51;45.92;;
70077;Laerm;57448;51.490;5.436;2023-03-20T03:53:46;40.22;37.24;45.20;;
70077;Laerm;57448;51.490;5.436;2023-03-20T03:55:50;40.57;37.74;43.79;;
70077;Laerm;57448;51.490;5.436;2023-03-20T03:57:54;40.92;37.91;44.17;;
70077;Laerm;57448;51.490;5.436;2023-03-20T03:59:57;40.73;37.39;48.99;;
70077;Laerm;57448;51.490;5.436;2023-03-20T04:02:01;41.28;38.20;52.08;;
70077;Laerm;57448;51.490;5.436;2023-03-20T04:04:07;42.17;38.06;46.87;;
70077;Laerm;57448;51.490;5.436;2023-03-20T04:06:10;42.13;39.25;46.18;;
70077;Laerm;57448;51.490;5.436;2023-03-20T04:08:13;42.51;39.78;47.57;;
70077;Laerm;57448;51.490;5.436;2023-03-20T04:10:15;41.65;39.04;44.90;;
70077;Laerm;57448;51.490;5.436;2023-03-20T04:12:28;42.03;38.40;45.58;;
70077;Laerm;57448;51.490;5.436;2023-03-20T04:14:31;42.86;39.99;46.70;;
70077;Laerm;57448;51.490;5.436;2023-03-20T04:16:33;42.70;39.91;45.47;;
70077;Laerm;57448;51.490;5.436;2023-03-20T04:18:35;43.07;39.95;47.94;;
70077;Laerm;57448;51.490;5.436;2023-03-20T04:20:37;43.78;40.81;54.82;;
70077;Laerm;57448;51.490;5.436;2023-03-20T04:22:38;43.61;40.37;47.25;;
70077;Laerm;57448;51.490;5.436;2023-03-20T04:24:40;44.03;41.11;50.56;;
70077;Laerm;57448;51.490;5.436;2023-03-20T04:26:41;44.40;41.08;53.06;;
70077;Laerm;57448;51.490;5.436;2023-03-20T04:28:42;45.14;41.39;52.94;;
70077;Laerm;57448;51.490;5.436;2023-03-20T04:30:44;45.37;41.02;53.21;;
70077;Laerm;57448;51.490;5.436;2023-03-20T04:32:51;45.72;41.80;53.39;;
70077;Laerm;57448;51.490;5.436;2023-03-20T04:34:54;45.74;41.22;55.00;;
70077;Laerm;57448;51.490;5.436;2023-03-20T04:36:55;45.37;41.33;53.17;;
70077;Laerm;57448;51.490;5.436;2023-03-20T04:38:56;45.97;41.48;61.50;;
70077;Laerm;57448;51.490;5.436;2023-03-20T04:40:58;45.78;41.53;53.14;;
70077;Laerm;57448;51.490;5.436;2023-03-20T04:42:59;45.37;42.24;51.70;;
70077;Laerm;57448;51.490;5.436;2023-03-20T04:45:00;45.50;42.43;50.66;;
70077;Laerm;57448;51.490;5.436;2023-03-20T04:47:02;45.37;41.44;55.16;;
70077;Laerm;57448;51.490;5.436;2023-03-20T04:49:03;45.60;42.58;51.70;;
70077;Laerm;57448;51.490;5.436;2023-03-20T04:51:06;46.76;42.92;55.97;;
70077;Laerm;57448;51.490;5.436;2023-03-20T04:53:08;46.64;42.54;54.62;;
70077;Laerm;57448;51.490;5.436;2023-03-20T04:55:09;46.81;42.94;56.74;;
70077;Laerm;57448;51.490;5.436;2023-03-20T04:57:10;46.25;42.32;55.78;;
70077;Laerm;57448;51.490;5.436;2023-03-20T04:59:12;46.74;42.97;53.92;;
70077;Laerm;57448;51.490;5.436;2023-03-20T05:01:13;47.46;42.45;56.47;;
70077;Laerm;57448;51.490;5.436;2023-03-20T05:03:14;47.77;43.16;58.75;;
70077;Laerm;57448;51.490;5.436;2023-03-20T05:05:16;48.76;43.78;60.34;;
70077;Laerm;57448;51.490;5.436;2023-03-20T05:07:18;52.78;43.64;67.14;;
70077;Laerm;57448;51.490;5.436;2023-03-20T05:09:20;56.94;44.26;68.58;;
70077;Laerm;57448;51.490;5.436;2023-03-20T05:11:21;55.50;44.49;68.01;;
70077;Laerm;57448;51.490;5.436;2023-03-20T05:13:23;56.83;43.28;67.72;;
70077;Laerm;57448;51.490;5.436;2023-03-20T05:15:24;55.57;44.02;65.63;;
70077;Laerm;57448;51.490;5.436;2023-03-20T05:17:25;56.85;43.93;69.93;;
70077;Laerm;57448;51.490;5.436;2023-03-20T05:19:27;53.91;43.79;67.40;;
70077;Laerm;57448;51.490;5.436;2023-03-20T05:21:28;53.92;43.54;66.84;;
70077;Laerm;57448;51.490;5.436;2023-03-20T05:23:30;52.57;43.93;65.13;;
70077;Laerm;57448;51.490;5.436;2023-03-20T05:25:32;48.00;43.55;63.09;;
70077;Laerm;57448;51.490;5.436;2023-03-20T05:27:34;52.10;44.25;65.93;;
70077;Laerm;57448;51.490;5.436;2023-03-20T05:29:36;53.10;44.21;74.94;;
70077;Laerm;57448;51.490;5.436;2023-03-20T05:31:37;48.94;43.98;68.77;;
70077;Laerm;57448;51.490;5.436;2023-03-20T05:33:38;55.45;44.39;70.05;;
70077;Laerm;57448;51.490;5.436;2023-03-20T05:35:40;54.92;43.92;68.95;;
70077;Laerm;57448;51.490;5.436;2023-03-20T05:37:41;52.45;44.28;69.43;;
70077;Laerm;57448;51.490;5.436;2023-03-20T05:39:43;50.82;44.80;73.32;;
70077;Laerm;57448;51.490;5.436;2023-03-20T05:41:45;48.06;44.64;60.91;;
70077;Laerm;57448;51.490;5.436;2023-03-20T05:43:46;47.86;45.03;53.57;;
70077;Laerm;57448;51.490;5.436;2023-03-20T05:45:47;49.21;44.25;61.06;;
70077;Laerm;57448;51.490;5.436;2023-03-20T05:47:49;49.93;43.77;63.98;;
70077;Laerm;57448;51.490;5.436;2023-03-20T05:49:50;49.35;43.62;66.56;;
70077;Laerm;57448;51.490;5.436;2023-03-20T05:51:51;50.51;44.23;67.15;;
70077;Laerm;57448;51.490;5.436;2023-03-20T05:53:53;51.59;44.27;65.96;;
70077;Laerm;57448;51.490;5.436;2023-03-20T05:55:56;53.35;43.89;70.95;;
70077;Laerm;57448;51.490;5.436;2023-03-20T05:57:57;49.97;43.62;65.68;;
70077;Laerm;57448;51.490;5.436;2023-03-20T05:59:58;55.75;43.49;73.36;;
70077;Laerm;57448;51.490;5.436;2023-03-20T06:02:00;51.68;43.49;65.38;;
70077;Laerm;57448;51.490;5.436;2023-03-20T06:04:01;50.92;43.75;66.79;;
70077;Laerm;57448;51.490;5.436;2023-03-20T06:06:03;49.88;43.55;70.05;;
70077;Laerm;57448;51.490;5.436;2023-03-20T06:08:04;49.47;43.57;73.49;;
70077;Laerm;57448;51.490;5.436;2023-03-20T06:10:06;47.49;43.82;55.70;;
70077;Laerm;57448;51.490;5.436;2023-03-20T06:12:09;48.56;44.32;58.42;;
70077;Laerm;57448;51.490;5.436;2023-03-20T06:14:10;49.12;43.41;66.20;;
70077;Laerm;57448;51.490;5.436;2023-03-20T06:16:11;49.34;43.18;66.61;;
70077;Laerm;57448;51.490;5.436;2023-03-20T06:18:13;48.45;43.89;64.55;;
70077;Laerm;57448;51.490;5.436;2023-03-20T06:20:14;50.47;43.67;65.53;;
70077;Laerm;57448;51.490;5.436;2023-03-20T06:22:15;48.15;43.60;64.70;;
70077;Laerm;57448;51.490;5.436;2023-03-20T06:24:17;46.66;43.37;55.00;;
70077;Laerm;57448;51.490;5.436;2023-03-20T06:26:18;46.80;43.09;62.65;;
70077;Laerm;57448;51.490;5.436;2023-03-20T06:28:21;46.40;43.73;57.76;;
70077;Laerm;57448;51.490;5.436;2023-03-20T06:30:22;46.38;43.00;55.13;;
70077;Laerm;57448;51.490;5.436;2023-03-20T06:32:24;49.86;44.23;67.67;;
70077;Laerm;57448;51.490;5.436;2023-03-20T06:34:25;49.92;43.87;64.44;;
70077;Laerm;57448;51.490;5.436;2023-03-20T06:36:26;48.91;43.94;64.31;;
70077;Laerm;57448;51.490;5.436;2023-03-20T06:38:28;48.75;43.25;67.52;;
70077;Laerm;57448;51.490;5.436;2023-03-20T06:40:29;47.75;44.27;54.91;;
70077;Laerm;57448;51.490;5.436;2023-03-20T06:42:31;46.68;43.23;55.10;;
70077;Laerm;57448;51.490;5.436;2023-03-20T06:44:33;46.64;43.46;55.23;;
70077;Laerm;57448;51.490;5.436;2023-03-20T06:46:35;46.65;43.15;63.33;;
70077;Laerm;57448;51.490;5.436;2023-03-20T06:48:36;46.65;42.48;64.87;;
70077;Laerm;57448;51.490;5.436;2023-03-20T06:50:37;47.76;43.01;59.69;;
70077;Laerm;57448;51.490;5.436;2023-03-20T06:52:39;48.32;43.86;62.31;;
70077;Laerm;57448;51.490;5.436;2023-03-20T06:54:40;49.44;42.76;62.59;;
70077;Laerm;57448;51.490;5.436;2023-03-20T06:56:42;49.34;43.68;65.19;;
70077;Laerm;57448;51.490;5.436;2023-03-20T06:58:43;53.91;43.83;67.45;;
70077;Laerm;57448;51.490;5.436;2023-03-20T07:00:46;47.60;43.63;63.56;;
70077;Laerm;57448;51.490;5.436;2023-03-20T07:02:47;51.98;43.34;66.50;;
70077;Laerm;57448;51.490;5.436;2023-03-20T07:04:49;53.13;43.65;69.06;;
70077;Laerm;57448;51.490;5.436;2023-03-20T07:06:51;49.13;42.52;67.42;;
70077;Laerm;57448;51.490;5.436;2023-03-20T07:08:52;46.26;42.82;54.85;;
70077;Laerm;57448;51.490;5.436;2023-03-20T07:10:53;45.23;42.22;56.97;;
70077;Laerm;57448;51.490;5.436;2023-03-20T07:12:55;47.15;42.92;55.59;;
70077;Laerm;57448;51.490;5.436;2023-03-20T07:14:56;46.16;42.97;63.87;;
70077;Laerm;57448;51.490;5.436;2023-03-20T07:16:59;49.96;42.39;69.39;;
70077;Laerm;57448;51.490;5.436;2023-03-20T07:19:00;45.91;42.28;54.80;;
70077;Laerm;57448;51.490;5.436;2023-03-20T07:21:03;47.30;42.04;61.47;;
70077;Laerm;57448;51.490;5.436;2023-03-20T07:23:05;46.11;42.32;62.50;;
70077;Laerm;57448;51.490;5.436;2023-03-20T07:25:07;52.63;41.77;67.83;;
70077;Laerm;57448;51.490;5.436;2023-03-20T07:27:08;47.72;43.16;61.35;;
70077;Laerm;57448;51.490;5.436;2023-03-20T07:29:10;46.26;43.21;57.83;;
70077;Laerm;57448;51.490;5.436;2023-03-20T07:31:17;46.31;42.35;59.57;;
70077;Laerm;57448;51.490;5.436;2023-03-20T07:33:20;50.33;42.93;67.60;;
70077;Laerm;57448;51.490;5.436;2023-03-20T07:35:21;48.86;42.33;70.10;;
70077;Laerm;57448;51.490;5.436;2023-03-20T07:37:23;52.44;43.23;65.21;;
70077;Laerm;57448;51.490;5.436;2023-03-20T07:39:24;46.29;43.12;52.63;;
70077;Laerm;57448;51.490;5.436;2023-03-20T07:41:26;45.96;42.99;56.65;;
70077;Laerm;57448;51.490;5.436;2023-03-20T07:43:27;45.92;42.57;50.24;;
70077;Laerm;57448;51.490;5.436;2023-03-20T07:45:28;54.47;42.90;69.74;;
70077;Laerm;57448;51.490;5.436;2023-03-20T07:47:30;46.16;42.26;53.85;;
70077;Laerm;57448;51.490;5.436;2023-03-20T07:49:33;48.38;42.16;65.42;;
70077;Laerm;57448;51.490;5.436;2023-03-20T07:51:34;50.81;43.67;68.98;;
70077;Laerm;57448;51.490;5.436;2023-03-20T07:53:35;48.28;42.83;65.41;;
70077;Laerm;57448;51.490;5.436;2023-03-20T07:55:37;50.39;43.17;70.92;;
70077;Laerm;57448;51.490;5.436;2023-03-20T07:57:38;53.56;43.04;71.77;;
70077;Laerm;57448;51.490;5.436;2023-03-20T07:59:39;53.13;43.45;69.87;;
70077;Laerm;57448;51.490;5.436;2023-03-20T08:01:41;55.81;44.01;72.74;;
70077;Laerm;57448;51.490;5.436;2023-03-20T08:03:42;50.40;42.73;73.08;;
70077;Laerm;57448;51.490;5.436;2023-03-20T08:05:45;47.42;42.72;59.11;;
70077;Laerm;57448;51.490;5.436;2023-03-20T08:07:46;46.37;42.66;56.44;;
70077;Laerm;57448;51.490;5.436;2023-03-20T08:09:48;46.34;42.60;56.57;;
70077;Laerm;57448;51.490;5.436;2023-03-20T08:11:49;48.00;42.35;74.15;;
70077;Laerm;57448;51.490;5.436;2023-03-20T08:13:51;46.31;42.09;62.79;;
70077;Laerm;57448;51.490;5.436;2023-03-20T08:15:52;45.91;41.86;59.00;;
70077;Laerm;57448;51.490;5.436;2023-03-20T08:17:53;45.79;41.88;58.23;;
70077;Laerm;57448;51.490;5.436;2023-03-20T08:19:56;54.50;41.71;75.46;;
70077;Laerm;57448;51.490;5.436;2023-03-20T08:21:59;55.08;42.15;73.67;;
70077;Laerm;57448;51.490;5.436;2023-03-20T08:24:00;48.05;42.60;66.83;;
70077;Laerm;57448;51.490;5.436;2023-03-20T08:26:02;48.37;41.60;67.72;;
70077;Laerm;57448;51.490;5.436;2023-03-20T08:28:03;49.92;42.57;64.85;;
70077;Laerm;57448;51.490;5.436;2023-03-20T08:30:05;47.00;42.44;62.42;;
70077;Laerm;57448;51.490;5.436;2023-03-20T08:32:06;46.24;41.02;67.95;;
70077;Laerm;57448;51.490;5.436;2023-03-20T08:34:07;46.14;41.24;66.96;;
70077;Laerm;57448;51.490;5.436;2023-03-20T08:36:09;46.26;42.57;58.80;;
70077;Laerm;57448;51.490;5.436;2023-03-20T08:38:12;46.25;41.95;64.65;;
70077;Laerm;57448;51.490;5.436;2023-03-20T08:40:13;45.36;41.73;56.03;;
70077;Laerm;57448;51.490;5.436;2023-03-20T08:42:15;47.32;41.93;65.57;;
70077;Laerm;57448;51.490;5.436;2023-03-20T08:44:17;48.22;42.59;62.23;;
70077;Laerm;57448;51.490;5.436;2023-03-20T08:46:18;45.96;41.86;61.84;;
70077;Laerm;57448;51.490;5.436;2023-03-20T08:48:19;45.97;42.41;57.89;;
70077;Laerm;57448;51.490;5.436;2023-03-20T08:50:21;46.44;43.00;55.10;;
70077;Laerm;57448;51.490;5.436;2023-03-20T08:52:22;47.60;42.46;62.71;;
70077;Laerm;57448;51.490;5.436;2023-03-20T08:54:25;53.22;42.61;68.92;;
70077;Laerm;57448;51.490;5.436;2023-03-20T08:56:26;45.83;42.41;58.11;;
70077;Laerm;57448;51.490;5.436;2023-03-20T08:58:28;52.58;42.78;65.55;;
70077;Laerm;57448;51.490;5.436;2023-03-20T09:00:29;46.53;42.59;56.74;;
70077;Laerm;57448;51.490;5.436;2023-03-20T09:02:31;45.55;41.32;62.63;;
70077;Laerm;57448;51.490;5.436;2023-03-20T09:04:32;45.46;42.21;55.31;;
70077;Laerm;57448;51.490;5.436;2023-03-20T09:06:34;46.55;41.82;69.44;;
70077;Laerm;57448;51.490;5.436;2023-03-20T09:08:36;55.42;42.54;77.12;;
70077;Laerm;57448;51.490;5.436;2023-03-20T09:10:39;47.50;43.79;57.56;;
70077;Laerm;57448;51.490;5.436;2023-03-20T09:12:40;47.57;42.72;62.56;;
70077;Laerm;57448;51.490;5.436;2023-03-20T09:14:42;54.22;42.80;71.30;;
70077;Laerm;57448;51.490;5.436;2023-03-20T09:16:43;47.17;43.67;55.03;;
70077;Laerm;57448;51.490;5.436;2023-03-20T09:18:44;46.74;43.06;51.97;;
70077;Laerm;57448;51.490;5.436;2023-03-20T09:20:46;65.83;44.75;79.64;;
70077;Laerm;57448;51.490;5.436;2023-03-20T09:22:47;53.23;42.72;75.43;;
70077;Laerm;57448;51.490;5.436;2023-03-20T09:24:48;47.90;43.94;59.26;;
70077;Laerm;57448;51.490;5.436;2023-03-20T09:26:51;47.84;44.02;65.39;;
70077;Laerm;57448;51.490;5.436;2023-03-20T09:28:52;49.97;44.84;62.44;;
70077;Laerm;57448;51.490;5.436;2023-03-20T09:30:54;50.32;46.70;69.05;;
70077;Laerm;57448;51.490;5.436;2023-03-20T09:32:55;50.72;47.54;63.00;;
70077;Laerm;57448;51.490;5.436;2023-03-20T09:34:57;50.88;46.60;68.92;;
70077;Laerm;57448;51.490;5.436;2023-03-20T09:36:58;49.06;45.47;58.34;;
70077;Laerm;57448;51.490;5.436;2023-03-20T09:39:02;47.88;45.00;60.34;;
70077;Laerm;57448;51.490;5.436;2023-03-20T09:41:03;53.30;45.39;71.15;;
70077;Laerm;57448;51.490;5.436;2023-03-20T09:43:08;51.95;46.33;67.69;;
70077;Laerm;57448;51.490;5.436;2023-03-20T09:45:15;48.07;44.88;59.36;;
70077;Laerm;57448;51.490;5.436;2023-03-20T09:47:21;53.58;46.12;66.05;;
70077;Laerm;57448;51.490;5.436;2023-03-20T09:49:29;47.66;44.36;55.68;;
70077;Laerm;57448;51.490;5.436;2023-03-20T09:51:35;47.50;44.73;57.94;;
70077;Laerm;57448;51.490;5.436;2023-03-20T09:53:39;49.11;44.88;60.25;;
70077;Laerm;57448;51.490;5.436;2023-03-20T09:55:41;55.09;45.47;71.21;;
70077;Laerm;57448;51.490;5.436;2023-03-20T09:57:44;49.16;45.04;66.50;;
70077;Laerm;57448;51.490;5.436;2023-03-20T09:59:48;47.95;43.74;63.34;;
70077;Laerm;57448;51.490;5.436;2023-03-20T10:01:52;53.16;43.15;70.46;;
70077;Laerm;57448;51.490;5.436;2023-03-20T10:03:55;53.33;44.01;72.77;;
70077;Laerm;57448;51.490;5.436;2023-03-20T10:05:57;51.97;44.71;64.11;;
70077;Laerm;57448;51.490;5.436;2023-03-20T10:08:01;54.12;43.20;68.27;;
70077;Laerm;57448;51.490;5.436;2023-03-20T10:10:03;48.07;43.89;58.64;;
70077;Laerm;57448;51.490;5.436;2023-03-20T10:12:15;51.69;42.82;70.24;;
70077;Laerm;57448;51.490;5.436;2023-03-20T10:14:24;47.57;43.94;60.42;;
70077;Laerm;57448;51.490;5.436;2023-03-20T10:16:37;48.98;42.94;66.64;;
70077;Laerm;57448;51.490;5.436;2023-03-20T10:18:43;52.95;43.22;66.93;;
70077;Laerm;57448;51.490;5.436;2023-03-20T10:20:47;46.84;43.52;66.58;;
70077;Laerm;57448;51.490;5.436;2023-03-20T10:22:52;49.50;43.43;68.28;;
70077;Laerm;57448;51.490;5.436;2023-03-20T10:24:56;48.01;43.61;56.96;;
70077;Laerm;57448;51.490;5.436;2023-03-20T10:27:03;47.52;42.36;59.49;;
70077;Laerm;57448;51.490;5.436;2023-03-20T10:29:06;49.60;43.51;61.58;;
70077;Laerm;57448;51.490;5.436;2023-03-20T10:31:18;48.61;43.14;57.63;;
70077;Laerm;57448;51.490;5.436;2023-03-20T10:33:27;46.10;42.38;53.25;;
70077;Laerm;57448;51.490;5.436;2023-03-20T10:35:35;46.90;42.47;66.17;;
70077;Laerm;57448;51.490;5.436;2023-03-20T10:37:41;46.59;42.14;64.81;;
70077;Laerm;57448;51.490;5.436;2023-03-20T10:39:50;46.38;42.53;56.04;;
70077;Laerm;57448;51.490;5.436;2023-03-20T10:41:56;44.69;41.45;51.58;;
70077;Laerm;57448;51.490;5.436;2023-03-20T10:43:58;45.11;41.29;49.92;;
70077;Laerm;57448;51.490;5.436;2023-03-20T10:46:01;44.88;41.63;50.33;;
70077;Laerm;57448;51.490;5.436;2023-03-20T10:48:06;47.96;42.69;65.52;;
70077;Laerm;57448;51.490;5.436;2023-03-20T10:50:14;49.23;41.21;65.66;;
70077;Laerm;57448;51.490;5.436;2023-03-20T10:52:17;54.59;42.60;67.28;;
70077;Laerm;57448;51.490;5.436;2023-03-20T10:54:20;45.74;42.64;56.46;;
70077;Laerm;57448;51.490;5.436;2023-03-20T10:56:25;48.23;42.76;59.40;;
70077;Laerm;57448;51.490;5.436;2023-03-20T10:58:29;54.42;42.13;69.85;;
70077;Laerm;57448;51.490;5.436;2023-03-20T11:00:31;47.08;42.70;62.29;;
70077;Laerm;57448;51.490;5.436;2023-03-20T11:02:33;52.27;42.17;64.16;;
70077;Laerm;57448;51.490;5.436;2023-03-20T11:04:35;52.15;42.53;65.63;;
70077;Laerm;57448;51.490;5.436;2023-03-20T11:06:39;50.93;42.48;67.05;;
70077;Laerm;57448;51.490;5.436;2023-03-20T11:08:45;52.32;42.65;66.35;;
70077;Laerm;57448;51.490;5.436;2023-03-20T11:10:51;50.15;43.10;64.74;;
70077;Laerm;57448;51.490;5.436;2023-03-20T11:12:57;47.93;42.83;67.84;;
70077;Laerm;57448;51.490;5.436;2023-03-20T11:14:58;49.59;42.15;63.62;;
70077;Laerm;57448;51.490;5.436;2023-03-20T11:17:01;45.93;42.41;56.18;;
70077;Laerm;57448;51.490;5.436;2023-03-20T11:19:04;51.09;42.75;69.43;;
70077;Laerm;57448;51.490;5.436;2023-03-20T11:21:07;52.41;41.77;71.49;;
70077;Laerm;57448;51.490;5.436;2023-03-20T11:23:15;48.10;43.31;64.52;;
70077;Laerm;57448;51.490;5.436;2023-03-20T11:25:24;55.00;41.79;70.92;;
70077;Laerm;57448;51.490;5.436;2023-03-20T11:27:29;45.47;42.35;50.75;;
70077;Laerm;57448;51.490;5.436;2023-03-20T11:29:31;47.52;43.06;69.06;;
70077;Laerm;57448;51.490;5.436;2023-03-20T11:31:35;48.19;42.64;68.14;;
70077;Laerm;57448;51.490;5.436;2023-03-20T11:33:37;46.09;42.62;51.27;;
70077;Laerm;57448;51.490;5.436;2023-03-20T11:35:39;44.77;41.70;53.76;;
70077;Laerm;57448;51.490;5.436;2023-03-20T11:37:46;53.71;41.61;69.32;;